Time;durP1;ratioP1;P1;durP2;ratioP2;P2;SDS_P1;SDS_P2;PMS_P1;PMS_P2;Temp;Humidity;BMP_temperature;BMP_pressure;BME280_temperature;BME280_humidity;BME280_pressure;Samples;Min_cycle;Max_cycle;Signal;HPM_P1;HPM_P2
2024/05/02 00:00:21;;;;;;;5.05;3.35;;;;;;;12.59;82.08;98763.44;5198565;21;20380;-56
2024/05/02 00:02:47;;;;;;;4.13;3.25;;;;;;;12.54;82.63;98765.03;5292441;27;20307;-57
2024/05/02 00:05:12;;;;;;;5.07;3.72;;;;;;;12.66;83.30;98768.59;5304919;26;20005;-58
2024/05/02 00:07:37;;;;;;;4.93;3.15;;;;;;;12.84;82.78;98760.91;5303761;26;20009;-58
2024/05/02 00:10:03;;;;;;;6.13;4.07;;;;;;;12.90;82.29;98741.81;5306775;26;20013;-57
2024/05/02 00:12:29;;;;;;;6.53;4.03;;;;;;;12.99;81.91;98750.97;5328699;26;20078;-58
2024/05/02 00:14:54;;;;;;;4.47;3.30;;;;;;;12.71;81.39;98722.69;5325605;26;20002;-56
2024/05/02 00:17:19;;;;;;;5.05;3.78;;;;;;;12.67;82.07;98749.34;5330720;26;20001;-56
2024/05/02 00:19:45;;;;;;;8.60;4.07;;;;;;;12.75;82.23;98746.50;5333345;26;20417;-56
2024/05/02 00:22:10;;;;;;;3.47;2.40;;;;;;;12.68;81.82;98724.91;5331341;26;20532;-59
2024/05/02 00:24:35;;;;;;;3.25;2.95;;;;;;;12.78;81.61;98737.47;5331598;26;20005;-56
2024/05/02 00:27:01;;;;;;;4.45;3.03;;;;;;;12.87;82.12;98747.44;5323131;26;20032;-57
2024/05/02 00:29:26;;;;;;;5.53;3.70;;;;;;;12.84;81.70;98745.25;5337438;26;20016;-56
2024/05/02 00:31:51;;;;;;;3.25;2.60;;;;;;;12.64;81.10;98750.56;5328138;26;20006;-56
2024/05/02 00:34:17;;;;;;;4.00;2.67;;;;;;;12.55;81.21;98741.41;5335997;26;20005;-57
2024/05/02 00:36:42;;;;;;;2.50;1.92;;;;;;;12.47;81.69;98749.47;5330024;26;20001;-55
2024/05/02 00:39:07;;;;;;;3.88;2.03;;;;;;;12.40;81.34;98727.88;5332828;26;20460;-56
2024/05/02 00:41:33;;;;;;;3.85;2.75;;;;;;;12.28;81.66;98698.28;5332342;26;20334;-55
2024/05/02 00:43:58;;;;;;;4.25;3.75;;;;;;;12.55;82.69;98738.81;5341561;26;21366;-55
2024/05/02 00:46:24;;;;;;;5.55;3.30;;;;;;;12.59;82.58;98742.59;5333548;26;20078;-56
2024/05/02 00:48:50;;;;;;;3.28;2.65;;;;;;;12.32;82.03;98731.53;5341534;26;20009;-57
2024/05/02 00:51:16;;;;;;;3.55;2.50;;;;;;;12.21;82.20;98739.97;5337918;26;20011;-57
2024/05/02 00:53:43;;;;;;;3.08;2.63;;;;;;;12.00;83.21;98732.44;5315337;26;20003;-55
2024/05/02 00:56:10;;;;;;;3.40;2.78;;;;;;;11.94;82.63;98736.66;5342029;26;20025;-56
2024/05/02 00:58:35;;;;;;;4.50;2.70;;;;;;;11.91;82.42;98736.28;5341302;26;20007;-56
2024/05/02 01:01:01;;;;;;;4.32;2.90;;;;;;;11.87;83.56;98732.47;5337230;26;20001;-55
2024/05/02 01:03:26;;;;;;;3.92;2.80;;;;;;;11.87;84.14;98740.28;5337246;26;20480;-56
2024/05/02 01:05:51;;;;;;;5.40;2.78;;;;;;;11.75;84.34;98727.06;5337698;26;20013;-56
2024/05/02 01:08:17;;;;;;;5.40;3.55;;;;;;;11.83;85.43;98712.09;5338159;26;20005;-56
2024/05/02 01:10:42;;;;;;;3.95;3.30;;;;;;;12.15;84.76;98725.16;5308243;26;20002;-56
2024/05/02 01:13:08;;;;;;;3.88;3.03;;;;;;;12.22;84.51;98717.34;5338402;26;20051;-55
2024/05/02 01:15:33;;;;;;;4.68;4.07;;;;;;;12.20;84.99;98716.75;5334184;26;20071;-56
2024/05/02 01:17:59;;;;;;;4.97;3.65;;;;;;;12.23;84.67;98727.56;5335273;26;20012;-56
2024/05/02 01:20:24;;;;;;;4.50;3.20;;;;;;;12.06;84.64;98721.22;5336906;26;20000;-55
2024/05/02 01:22:50;;;;;;;3.17;2.40;;;;;;;11.77;84.12;98704.28;5308597;26;19999;-55
2024/05/02 01:25:16;;;;;;;2.33;1.98;;;;;;;11.75;84.54;98714.06;5341358;26;20028;-55
2024/05/02 01:27:41;;;;;;;3.70;2.17;;;;;;;11.76;84.58;98719.09;5340824;26;20001;-55
2024/05/02 01:30:07;;;;;;;2.40;2.20;;;;;;;11.76;84.46;98710.50;5336041;26;20013;-56
2024/05/02 01:32:32;;;;;;;2.75;2.05;;;;;;;11.77;83.67;98712.88;5338250;26;20397;-56
2024/05/02 01:34:58;;;;;;;3.58;2.80;;;;;;;11.94;83.82;98722.88;5333633;26;20031;-55
2024/05/02 01:37:23;;;;;;;4.13;3.08;;;;;;;12.07;84.15;98715.81;5338861;26;20005;-56
2024/05/02 01:39:48;;;;;;;3.78;3.28;;;;;;;12.01;84.19;98721.81;5334532;26;20025;-56
2024/05/02 01:42:14;;;;;;;5.20;3.00;;;;;;;11.68;84.13;98684.69;5338214;26;20015;-56
2024/05/02 01:44:39;;;;;;;4.28;2.53;;;;;;;11.78;84.52;98718.88;5338531;26;20387;-59
2024/05/02 01:47:05;;;;;;;5.85;2.95;;;;;;;11.72;84.36;98709.28;5316963;26;20009;-58
2024/05/02 01:49:30;;;;;;;4.43;2.80;;;;;;;11.77;84.97;98720.69;5342291;26;20001;-55
2024/05/02 01:51:55;;;;;;;3.20;2.65;;;;;;;11.75;84.75;98720.09;5341409;26;20013;-56
2024/05/02 01:54:21;;;;;;;3.75;3.08;;;;;;;11.77;84.27;98712.88;5342777;26;20083;-56
2024/05/02 01:56:46;;;;;;;4.05;2.80;;;;;;;11.68;84.86;98697.69;5340997;26;20001;-56
2024/05/02 01:59:12;;;;;;;4.60;2.67;;;;;;;11.41;84.79;98668.38;5341966;26;20356;-56
2024/05/02 02:01:37;;;;;;;3.97;3.08;;;;;;;11.07;85.10;98613.03;5342641;26;20357;-61
2024/05/02 02:04:02;;;;;;;4.40;3.05;;;;;;;11.53;84.93;98695.34;5341124;26;20001;-56
2024/05/02 02:06:28;;;;;;;3.60;2.22;;;;;;;11.45;84.79;98688.53;5342291;26;20005;-56
2024/05/02 02:08:53;;;;;;;3.80;2.33;;;;;;;11.57;85.12;98709.50;5339897;26;19997;-56
2024/05/02 02:11:19;;;;;;;3.17;2.28;;;;;;;11.42;84.98;98678.56;5342960;26;20005;-56
2024/05/02 02:13:44;;;;;;;2.70;2.33;;;;;;;11.57;85.05;98693.13;5342490;26;20008;-57
2024/05/02 02:16:09;;;;;;;3.72;2.17;;;;;;;11.56;84.78;98692.31;5343506;26;20020;-55
2024/05/02 02:18:35;;;;;;;4.38;2.67;;;;;;;11.31;85.19;98660.97;5343734;26;20005;-56
2024/05/02 02:21:03;;;;;;;5.72;2.00;;;;;;;11.43;84.77;98684.53;5343097;26;20036;-56
2024/05/02 02:23:29;;;;;;;3.67;2.67;;;;;;;11.31;85.03;98679.16;5344079;26;20008;-55
2024/05/02 02:25:54;;;;;;;4.82;2.20;;;;;;;11.25;85.07;98679.97;5329573;26;20013;-57
2024/05/02 02:28:20;;;;;;;4.25;2.75;;;;;;;11.32;85.49;98693.75;5297537;26;20462;-56
2024/05/02 02:30:45;;;;;;;6.32;4.07;;;;;;;11.35;87.31;98702.94;5278109;26;20021;-56
2024/05/02 02:33:10;;;;;;;3.92;3.00;;;;;;;11.32;87.11;98698.16;5315585;26;20012;-56
2024/05/02 02:35:36;;;;;;;3.72;3.03;;;;;;;11.17;86.82;98683.56;5322023;26;19995;-55
2024/05/02 02:38:05;;;;;;;4.50;3.13;;;;;;;11.25;87.11;98693.78;5324637;26;20043;-58
2024/05/02 02:40:31;;;;;;;3.80;2.67;;;;;;;10.69;86.89;98619.88;5289117;26;20017;-55
2024/05/02 02:42:56;;;;;;;5.07;3.45;;;;;;;10.89;87.34;98662.22;5302041;26;20002;-57
2024/05/02 02:45:21;;;;;;;3.97;3.05;;;;;;;10.90;86.82;98677.59;5302074;26;20019;-58
2024/05/02 02:47:47;;;;;;;4.95;2.75;;;;;;;10.94;86.72;98678.78;5288803;26;20006;-55
2024/05/02 02:50:12;;;;;;;3.58;2.78;;;;;;;11.02;87.19;98687.38;5282623;26;20049;-56
2024/05/02 02:52:38;;;;;;;5.50;3.30;;;;;;;10.69;87.05;98632.84;5337235;26;20001;-57
2024/05/02 02:55:03;;;;;;;4.10;3.05;;;;;;;11.00;87.05;98685.00;5287978;26;20013;-56
2024/05/02 02:57:29;;;;;;;5.07;3.28;;;;;;;10.90;87.16;98685.38;5339282;26;20078;-57
2024/05/02 02:59:54;;;;;;;4.03;3.42;;;;;;;10.85;87.68;98718.94;5329163;26;20012;-56
2024/05/02 03:02:19;;;;;;;4.63;3.83;;;;;;;10.86;88.05;98698.97;5296813;26;20799;-56
2024/05/02 03:04:45;;;;;;;4.68;2.70;;;;;;;10.68;87.43;98689.13;5282750;26;20463;-57
2024/05/02 03:07:10;;;;;;;3.42;2.35;;;;;;;10.64;87.48;98680.16;5321324;26;20330;-56
2024/05/02 03:09:35;;;;;;;3.05;2.47;;;;;;;10.75;88.06;98708.13;5345663;26;20000;-56
2024/05/02 03:12:01;;;;;;;3.00;2.47;;;;;;;10.79;87.68;98706.72;5312681;26;20016;-56
2024/05/02 03:14:27;;;;;;;3.80;2.88;;;;;;;10.75;87.54;98689.97;5287189;26;20002;-56
2024/05/02 03:16:52;;;;;;;3.42;2.45;;;;;;;10.92;87.67;98708.53;5333139;26;20045;-56
2024/05/02 03:19:18;;;;;;;4.18;2.70;;;;;;;10.95;88.08;98697.75;5295208;26;20295;-56
2024/05/02 03:21:46;;;;;;;3.83;2.45;;;;;;;10.51;87.43;98626.44;5316127;26;20184;-54
2024/05/02 03:24:12;;;;;;;3.90;2.63;;;;;;;10.98;87.34;98707.75;5278969;26;20053;-56
2024/05/02 03:26:38;;;;;;;3.88;2.78;;;;;;;11.02;87.67;98708.97;5305636;26;20018;-55
2024/05/02 03:29:03;;;;;;;3.97;2.30;;;;;;;11.04;87.46;98706.16;5307695;26;20001;-56
2024/05/02 03:31:29;;;;;;;3.78;2.40;;;;;;;10.88;87.09;98677.00;5300451;26;20457;-56
2024/05/02 03:33:54;;;;;;;3.40;2.20;;;;;;;11.04;87.49;98698.38;5317229;26;20402;-56
2024/05/02 03:36:20;;;;;;;3.20;2.17;;;;;;;10.82;87.38;98653.63;5311413;26;20013;-56
2024/05/02 03:38:45;;;;;;;2.33;1.95;;;;;;;11.11;87.44;98697.38;5285936;26;20440;-55
2024/05/02 03:41:11;;;;;;;2.72;2.35;;;;;;;11.06;87.41;98678.19;5280898;26;20002;-57
2024/05/02 03:43:36;;;;;;;3.10;2.47;;;;;;;11.22;86.72;98706.38;5304761;26;20012;-55
2024/05/02 03:46:01;;;;;;;2.50;2.13;;;;;;;11.27;86.28;98690.97;5294480;26;19997;-56
2024/05/02 03:48:27;;;;;;;2.95;2.33;;;;;;;11.29;86.78;98686.38;5307401;26;20002;-59
2024/05/02 03:50:52;;;;;;;3.60;2.50;;;;;;;11.21;86.43;98670.97;5285529;26;20006;-56
2024/05/02 03:53:17;;;;;;;3.20;2.42;;;;;;;11.31;86.20;98689.56;5293872;26;20464;-56
2024/05/02 03:55:43;;;;;;;3.30;2.58;;;;;;;11.18;86.37;98661.78;5295683;26;20008;-56
2024/05/02 03:58:08;;;;;;;6.18;3.63;;;;;;;11.21;87.04;98682.16;5283654;26;20505;-56
2024/05/02 04:00:33;;;;;;;5.78;3.83;;;;;;;11.16;87.02;98688.97;5282419;26;20008;-58
2024/05/02 04:02:59;;;;;;;7.93;4.70;;;;;;;11.03;87.58;98681.97;5285024;26;20008;-56
2024/05/02 04:05:24;;;;;;;6.55;4.63;;;;;;;10.71;87.42;98647.22;5299719;26;19993;-56
2024/05/02 04:07:49;;;;;;;5.75;4.75;;;;;;;10.90;88.03;98680.19;5291838;26;20010;-55
2024/05/02 04:10:15;;;;;;;6.30;4.68;;;;;;;10.91;88.47;98696.56;5281373;26;20000;-53
2024/05/02 04:12:40;;;;;;;6.80;5.22;;;;;;;10.75;88.52;98679.56;5282042;26;20010;-57
2024/05/02 04:15:06;;;;;;;6.30;4.88;;;;;;;10.77;89.29;98689.75;5294635;26;20004;-55
2024/05/02 04:17:31;;;;;;;7.50;5.70;;;;;;;10.84;89.33;98695.78;5322314;26;20012;-56
2024/05/02 04:19:56;;;;;;;5.70;4.78;;;;;;;10.69;88.80;98682.97;5310776;26;19994;-57
2024/05/02 04:22:22;;;;;;;7.03;4.50;;;;;;;10.73;88.63;98699.75;5310643;26;20001;-56
2024/05/02 04:24:47;;;;;;;5.65;4.25;;;;;;;10.60;88.73;98687.56;5295695;26;20102;-56
2024/05/02 04:27:13;;;;;;;5.18;3.15;;;;;;;10.22;88.47;98622.41;5285811;26;20105;-55
2024/05/02 04:29:38;;;;;;;3.80;2.92;;;;;;;10.42;88.24;98629.44;5284227;26;20108;-56
2024/05/02 04:32:04;;;;;;;4.93;3.78;;;;;;;10.66;88.37;98645.22;5300849;26;20005;-57
2024/05/02 04:34:29;;;;;;;4.50;3.30;;;;;;;10.75;87.88;98642.44;5326150;26;20020;-58
2024/05/02 04:36:54;;;;;;;7.78;6.25;;;;;;;10.99;88.17;98687.78;5325417;26;20012;-59
2024/05/02 04:39:20;;;;;;;6.60;5.25;;;;;;;11.06;88.44;98709.34;5309520;26;20010;-57
2024/05/02 04:41:45;;;;;;;10.57;5.28;;;;;;;10.88;88.09;98684.78;5316952;26;20006;-56
2024/05/02 04:44:10;;;;;;;8.82;6.47;;;;;;;11.17;88.68;98706.16;5288889;26;19997;-56
2024/05/02 04:46:37;;;;;;;9.32;5.68;;;;;;;11.42;89.14;98708.94;5286174;26;20017;-59
2024/05/02 04:49:03;;;;;;;5.50;4.45;;;;;;;11.49;88.13;98720.94;5291911;26;19997;-56
2024/05/02 04:51:28;;;;;;;11.25;5.25;;;;;;;11.41;88.05;98713.34;5286006;26;20077;-59
2024/05/02 04:53:53;;;;;;;6.97;5.90;;;;;;;11.45;87.77;98698.13;5292438;26;20006;-57
2024/05/02 04:56:18;;;;;;;8.00;5.28;;;;;;;11.67;87.25;98701.31;5308348;26;20379;-56
2024/05/02 04:58:44;;;;;;;6.63;4.53;;;;;;;12.02;86.68;98720.00;5308183;26;20009;-56
2024/05/02 05:01:09;;;;;;;4.47;3.90;;;;;;;12.11;85.96;98719.59;5290866;26;20077;-55
2024/05/02 05:03:34;;;;;;;4.50;3.25;;;;;;;12.03;86.03;98700.81;5307375;26;20017;-58
2024/05/02 05:06:00;;;;;;;3.63;2.72;;;;;;;12.26;85.24;98715.91;5307599;26;20087;-59
2024/05/02 05:08:25;;;;;;;4.80;3.13;;;;;;;12.37;85.41;98723.09;5319137;26;20012;-57
2024/05/02 05:10:50;;;;;;;5.43;3.80;;;;;;;12.37;84.50;98704.88;5309399;26;20006;-56
2024/05/02 05:13:19;;;;;;;5.03;4.05;;;;;;;12.36;84.63;98695.47;5300645;26;20017;-58
2024/05/02 05:15:47;;;;;;;4.25;2.95;;;;;;;12.68;84.68;98720.50;5311589;26;19997;-55
2024/05/02 05:18:13;;;;;;;3.85;2.83;;;;;;;12.95;83.42;98720.31;5320126;26;20603;-56
2024/05/02 05:20:39;;;;;;;3.00;2.50;;;;;;;13.16;82.86;98727.78;5290391;26;20009;-56
2024/05/02 05:23:05;;;;;;;3.17;2.55;;;;;;;13.33;82.24;98725.47;5284453;26;20012;-55
2024/05/02 05:25:30;;;;;;;4.28;3.25;;;;;;;13.31;81.72;98691.78;5325136;26;20432;-57
2024/05/02 05:27:55;;;;;;;3.13;2.20;;;;;;;13.53;80.93;98705.22;5299941;26;20081;-56
2024/05/02 05:30:21;;;;;;;8.57;3.95;;;;;;;13.77;80.31;98719.25;5298539;26;20017;-56
2024/05/02 05:32:47;;;;;;;3.30;2.17;;;;;;;13.90;80.21;98711.28;5332479;26;20020;-59
2024/05/02 05:35:13;;;;;;;3.13;2.63;;;;;;;14.18;79.14;98707.34;5301618;26;20031;-57
2024/05/02 05:37:38;;;;;;;2.88;2.30;;;;;;;14.15;78.87;98668.59;5317455;26;20658;-55
2024/05/02 05:40:04;;;;;;;3.85;2.85;;;;;;;14.26;77.84;98652.19;5319794;26;20001;-57
2024/05/02 05:42:29;;;;;;;4.80;3.80;;;;;;;14.56;77.08;98691.41;5305796;26;20017;-54
2024/05/02 05:44:54;;;;;;;3.95;3.30;;;;;;;14.67;76.58;98705.47;5316925;26;20001;-55
2024/05/02 05:47:20;;;;;;;8.35;3.90;;;;;;;14.60;76.22;98697.75;5329995;26;20006;-56
2024/05/02 05:49:45;;;;;;;4.88;3.13;;;;;;;14.79;76.05;98706.31;5292345;26;19998;-60
2024/05/02 05:52:10;;;;;;;5.40;4.00;;;;;;;14.86;76.35;98703.63;5305319;26;20005;-56
2024/05/02 05:54:36;;;;;;;4.03;2.90;;;;;;;15.03;75.82;98715.78;5307361;26;20048;-56
2024/05/02 05:57:01;;;;;;;6.60;3.35;;;;;;;15.13;76.32;98698.78;5340407;26;20310;-57
2024/05/02 05:59:26;;;;;;;4.53;3.47;;;;;;;15.26;75.74;98695.94;5334726;26;20006;-56
2024/05/02 06:01:52;;;;;;;4.13;2.80;;;;;;;15.59;74.95;98711.84;5337338;26;20055;-59
2024/05/02 06:04:17;;;;;;;2.63;2.38;;;;;;;15.72;74.49;98707.41;5293962;26;20082;-57
2024/05/02 06:06:42;;;;;;;3.03;2.20;;;;;;;15.98;73.66;98719.19;5292261;26;19999;-57
2024/05/02 06:09:08;;;;;;;3.58;2.13;;;;;;;16.11;73.34;98717.13;5318404;26;20009;-57
2024/05/02 06:11:33;;;;;;;3.78;2.05;;;;;;;16.26;71.67;98712.16;5291442;26;20121;-59
2024/05/02 06:14:01;;;;;;;7.28;3.30;;;;;;;16.40;69.77;98706.66;5318431;26;20075;-57
2024/05/02 06:16:26;;;;;;;3.45;2.67;;;;;;;16.46;69.13;98706.53;5280188;22;20437;-61
2024/05/02 06:18:52;;;;;;;3.08;2.30;;;;;;;16.06;68.75;98629.84;5273261;27;20006;-59
2024/05/02 06:21:17;;;;;;;4.18;2.63;;;;;;;16.56;67.82;98698.06;5262738;26;20344;-61
2024/05/02 06:23:42;;;;;;;5.95;2.97;;;;;;;16.54;67.05;98679.91;5260234;27;20313;-58
2024/05/02 06:26:08;;;;;;;3.50;2.85;;;;;;;16.68;66.58;98711.91;5307415;26;20002;-61
2024/05/02 06:28:34;;;;;;;4.25;2.90;;;;;;;16.76;66.14;98690.56;5304485;26;20009;-59
2024/05/02 06:30:59;;;;;;;4.25;2.65;;;;;;;16.86;65.34;98694.38;5291766;27;20017;-60
2024/05/02 06:33:25;;;;;;;5.38;3.42;;;;;;;16.96;65.03;98684.03;5288428;26;20014;-60
2024/05/02 06:35:50;;;;;;;4.38;3.00;;;;;;;17.10;64.76;98682.72;5298285;27;20008;-60
2024/05/02 06:38:16;;;;;;;4.07;2.97;;;;;;;17.20;63.57;98680.22;5310574;26;20002;-60
2024/05/02 06:40:41;;;;;;;5.70;3.10;;;;;;;17.37;61.90;98683.63;5301920;26;20093;-60
2024/05/02 06:43:07;;;;;;;5.75;3.10;;;;;;;17.53;61.18;98678.59;5299031;26;20005;-59
2024/05/02 06:45:32;;;;;;;3.20;2.65;;;;;;;17.67;60.98;98679.81;5312769;26;20093;-59
2024/05/02 06:47:57;;;;;;;5.70;3.05;;;;;;;17.85;60.55;98682.16;5315539;26;20002;-60
2024/05/02 06:50:23;;;;;;;3.75;2.50;;;;;;;18.00;59.85;98665.78;5292997;26;20341;-59
2024/05/02 06:52:48;;;;;;;4.82;2.67;;;;;;;18.13;58.97;98668.03;5302872;27;20005;-61
2024/05/02 06:55:13;;;;;;;3.80;2.70;;;;;;;18.22;58.61;98652.63;5297431;26;20002;-60
2024/05/02 06:57:39;;;;;;;3.20;2.40;;;;;;;18.42;59.07;98663.31;5304287;26;20010;-60
2024/05/02 07:00:05;;;;;;;3.10;2.13;;;;;;;18.57;58.87;98662.69;5293259;27;20009;-59
2024/05/02 07:02:30;;;;;;;3.67;2.55;;;;;;;18.70;58.47;98661.53;5293620;27;20005;-58
2024/05/02 07:04:55;;;;;;;2.88;2.58;;;;;;;18.85;57.97;98657.19;5309418;26;20013;-60
2024/05/02 07:07:21;;;;;;;4.95;2.42;;;;;;;18.95;57.48;98653.81;5289928;26;20001;-59
2024/05/02 07:09:46;;;;;;;3.60;2.60;;;;;;;19.03;56.56;98653.34;5297448;26;19993;-59
2024/05/02 07:12:11;;;;;;;3.90;2.28;;;;;;;19.02;56.26;98641.25;5291671;26;20049;-59
2024/05/02 07:14:36;;;;;;;3.95;2.90;;;;;;;19.03;55.50;98640.19;5295636;27;20477;-59
2024/05/02 07:17:02;;;;;;;3.38;2.22;;;;;;;19.09;55.58;98647.06;5288548;27;20489;-59
2024/05/02 07:19:27;;;;;;;4.03;2.97;;;;;;;19.20;54.98;98648.72;5293410;26;19998;-61
2024/05/02 07:21:53;;;;;;;2.58;2.30;;;;;;;19.36;55.04;98644.31;5302052;26;20109;-59
2024/05/02 07:24:19;;;;;;;3.60;2.30;;;;;;;19.40;54.75;98634.88;5301501;26;20008;-60
2024/05/02 07:26:44;;;;;;;4.40;2.72;;;;;;;19.41;54.34;98623.31;5301809;26;20006;-59
2024/05/02 07:29:10;;;;;;;3.67;2.83;;;;;;;19.53;54.18;98638.13;5293405;26;20037;-59
2024/05/02 07:31:35;;;;;;;3.92;2.80;;;;;;;19.60;54.22;98638.69;5288502;27;20013;-60
2024/05/02 07:34:01;;;;;;;5.55;2.60;;;;;;;19.64;54.12;98645.84;5300406;27;20012;-59
2024/05/02 07:36:26;;;;;;;4.47;3.05;;;;;;;19.71;53.67;98640.31;5305077;26;20012;-59
2024/05/02 07:38:51;;;;;;;4.85;2.65;;;;;;;19.79;52.72;98647.72;5306387;27;20008;-59
2024/05/02 07:41:17;;;;;;;3.78;2.60;;;;;;;19.91;52.39;98642.25;5301766;26;20011;-59
2024/05/02 07:43:42;;;;;;;3.33;2.17;;;;;;;20.13;52.57;98642.03;5308762;26;20075;-60
2024/05/02 07:46:07;;;;;;;3.80;2.47;;;;;;;20.29;52.25;98636.50;5296879;27;20030;-57
2024/05/02 07:48:33;;;;;;;4.15;2.67;;;;;;;20.39;51.01;98630.47;5289647;26;20076;-60
2024/05/02 07:50:58;;;;;;;3.35;2.42;;;;;;;20.39;50.20;98625.19;5293894;27;20065;-60
2024/05/02 07:53:23;;;;;;;3.85;2.58;;;;;;;20.41;50.20;98628.34;5301947;26;20002;-60
2024/05/02 07:55:49;;;;;;;3.28;2.22;;;;;;;20.50;50.59;98628.66;5297171;26;20072;-59
2024/05/02 07:58:14;;;;;;;4.10;2.67;;;;;;;20.59;50.54;98629.72;5301687;26;20363;-59
2024/05/02 08:00:39;;;;;;;3.53;2.17;;;;;;;20.70;49.98;98631.31;5297324;27;20467;-59
2024/05/02 08:03:05;;;;;;;4.00;2.40;;;;;;;20.84;50.01;98629.72;5287814;27;20005;-59
2024/05/02 08:05:31;;;;;;;4.03;2.30;;;;;;;21.07;49.46;98620.44;5302074;26;20002;-59
2024/05/02 08:07:57;;;;;;;3.47;2.80;;;;;;;21.16;48.93;98633.88;5302561;26;19998;-59
2024/05/02 08:10:22;;;;;;;3.83;2.40;;;;;;;21.01;48.12;98599.63;5295680;26;20012;-59
2024/05/02 08:12:47;;;;;;;2.53;2.30;;;;;;;20.70;48.49;98541.63;5295874;26;19994;-59
2024/05/02 08:15:13;;;;;;;3.03;2.38;;;;;;;21.29;48.49;98620.16;5296264;26;20018;-59
2024/05/02 08:17:38;;;;;;;3.45;2.47;;;;;;;21.41;48.50;98618.00;5302114;26;20002;-60
2024/05/02 08:20:04;;;;;;;3.92;2.50;;;;;;;21.37;48.37;98598.50;5301186;26;20466;-58
2024/05/02 08:22:29;;;;;;;4.30;2.67;;;;;;;21.66;47.91;98622.41;5285118;26;20744;-56
2024/05/02 08:24:55;;;;;;;5.68;2.72;;;;;;;21.72;47.07;98626.59;5283708;27;20462;-60
2024/05/02 08:27:20;;;;;;;3.90;3.10;;;;;;;21.75;47.73;98631.31;5284049;26;20362;-57
2024/05/02 08:29:45;;;;;;;3.53;2.47;;;;;;;21.66;47.65;98589.91;5282313;27;20470;-58
2024/05/02 08:32:11;;;;;;;3.17;2.55;;;;;;;22.00;47.44;98624.34;5281622;27;19998;-59
2024/05/02 08:34:36;;;;;;;3.42;2.72;;;;;;;22.02;46.18;98609.78;5280628;27;20015;-58
2024/05/02 08:37:03;;;;;;;3.63;2.30;;;;;;;22.20;46.68;98620.81;5282522;26;20005;-54
2024/05/02 08:39:29;;;;;;;3.00;2.40;;;;;;;22.24;46.63;98619.22;5282844;26;19998;-58
2024/05/02 08:42:03;;;;;;;4.30;2.50;;;;;;;22.37;46.41;98629.94;5283331;27;20934;-59
2024/05/02 08:44:31;;;;;;;3.15;2.75;;;;;;;22.48;46.01;98633.31;5282807;27;20076;-58
2024/05/02 08:46:58;;;;;;;3.85;2.42;;;;;;;22.44;45.76;98616.44;5278427;27;20335;-59
2024/05/02 08:49:24;;;;;;;4.47;2.42;;;;;;;22.43;45.83;98626.19;5281902;27;20013;-57
2024/05/02 08:51:50;;;;;;;5.43;2.63;;;;;;;22.46;45.35;98624.88;5281364;27;19998;-56
2024/05/02 08:54:15;;;;;;;5.28;2.78;;;;;;;22.52;45.52;98626.41;5284404;27;19994;-58
2024/05/02 08:56:44;;;;;;;5.72;2.92;;;;;;;22.60;45.37;98617.09;5280997;26;20080;-58
2024/05/02 08:59:13;;;;;;;3.20;2.15;;;;;;;22.76;45.17;98609.81;5285793;27;20079;-60
2024/05/02 09:01:39;;;;;;;5.13;2.50;;;;;;;23.02;44.64;98624.41;5287756;26;20006;-59
2024/05/02 09:04:06;;;;;;;3.60;2.40;;;;;;;23.16;44.08;98625.31;5284965;27;20469;-56
2024/05/02 09:06:33;;;;;;;3.95;2.70;;;;;;;23.24;44.02;98623.94;5287303;26;20077;-60
2024/05/02 09:08:58;;;;;;;3.50;2.40;;;;;;;23.27;44.33;98623.38;5295522;26;20440;-58
2024/05/02 09:11:23;;;;;;;3.03;2.40;;;;;;;23.35;43.99;98627.22;5282041;26;20259;-60
2024/05/02 09:13:49;;;;;;;4.53;2.80;;;;;;;23.47;44.10;98639.00;5266533;27;20013;-59
2024/05/02 09:16:14;;;;;;;3.03;2.60;;;;;;;23.51;43.62;98636.59;5262909;27;20076;-56
2024/05/02 09:18:39;;;;;;;3.45;2.85;;;;;;;23.62;43.67;98638.06;5266729;27;20007;-57
2024/05/02 09:21:05;;;;;;;4.55;2.95;;;;;;;23.64;42.95;98643.91;5272685;26;20061;-58
2024/05/02 09:23:30;;;;;;;4.13;2.70;;;;;;;23.67;42.88;98638.03;5269528;27;20085;-58
2024/05/02 09:25:55;;;;;;;3.67;2.63;;;;;;;23.69;44.10;98643.03;5271681;27;19994;-55
2024/05/02 09:28:24;;;;;;;4.03;2.38;;;;;;;23.22;43.35;98575.72;5274328;27;19998;-58
2024/05/02 09:30:49;;;;;;;4.35;2.92;;;;;;;23.51;42.75;98639.25;5280715;26;20002;-58
2024/05/02 09:33:15;;;;;;;4.63;2.53;;;;;;;23.57;43.00;98643.41;5265755;27;20006;-57
2024/05/02 09:35:40;;;;;;;3.10;2.45;;;;;;;23.66;43.23;98644.41;5265231;27;20007;-57
2024/05/02 09:38:10;;;;;;;3.42;2.80;;;;;;;23.68;42.72;98650.19;5265850;27;20016;-60
2024/05/02 09:40:37;;;;;;;;;;;;;;;23.69;42.57;98649.13;5270294;27;20081;-58
2024/05/02 09:43:06;;;;;;;3.28;2.80;;;;;;;23.83;42.48;98652.66;5267403;26;19927;-58
2024/05/02 09:45:35;;;;;;;3.72;3.08;;;;;;;24.11;42.13;98660.78;5270407;27;20053;-57
2024/05/02 09:48:06;;;;;;;4.72;3.25;;;;;;;24.22;40.94;98664.88;5266195;27;20006;-60
2024/05/02 09:50:33;;;;;;;4.50;3.00;;;;;;;24.33;40.75;98663.69;5266080;27;20018;-58
2024/05/02 09:53:00;;;;;;;3.53;2.85;;;;;;;24.54;39.88;98660.72;5269627;27;20477;-59
2024/05/02 09:55:25;;;;;;;4.30;3.30;;;;;;;24.80;40.07;98661.88;5269209;27;20088;-59
2024/05/02 09:57:51;;;;;;;3.53;2.53;;;;;;;25.19;38.93;98663.38;5265783;27;20825;-61
2024/05/02 10:00:17;;;;;;;4.95;3.30;;;;;;;25.51;39.15;98660.66;5269659;27;20003;-59
2024/05/02 10:02:45;;;;;;;4.43;2.65;;;;;;;25.85;38.95;98656.78;5264663;27;20002;-59
2024/05/02 10:05:12;;;;;;;3.55;2.58;;;;;;;26.03;38.00;98653.19;5268892;27;20003;-59
2024/05/02 10:07:39;;;;;;;3.55;2.92;;;;;;;26.05;36.48;98644.94;5275583;27;20049;-61
2024/05/02 10:10:10;;;;;;;3.08;2.67;;;;;;;26.31;36.95;98648.63;5269361;27;20777;-57
2024/05/02 10:12:51;;;;;;;4.43;2.80;;;;;;;26.56;37.21;98643.78;5268232;27;20085;-58
2024/05/02 10:15:20;;;;;;;4.95;2.90;;;;;;;26.66;36.36;98638.22;5261531;27;20386;-59
2024/05/02 10:17:46;;;;;;;4.68;2.35;;;;;;;26.94;36.81;98644.16;5269629;27;20006;-57
2024/05/02 10:20:12;;;;;;;3.42;2.55;;;;;;;27.07;36.41;98632.66;5284814;27;20001;-59
2024/05/02 10:22:38;;;;;;;3.70;2.65;;;;;;;27.19;35.25;98635.53;5282708;26;20603;-59
2024/05/02 10:25:06;;;;;;;5.03;2.80;;;;;;;26.97;35.07;98624.91;5282791;26;20003;-60
2024/05/02 10:27:35;;;;;;;5.32;2.83;;;;;;;26.88;34.52;98640.88;5282642;27;20020;-59
2024/05/02 10:30:05;;;;;;;4.72;2.88;;;;;;;26.83;33.81;98629.53;5284525;26;20010;-59
2024/05/02 10:32:42;;;;;;;6.50;2.72;;;;;;;26.96;35.48;98623.34;5283146;27;20342;-56
2024/05/02 10:35:13;;;;;;;3.53;2.58;;;;;;;27.26;35.38;98622.56;5282739;27;20426;-60
2024/05/02 10:37:39;;;;;;;3.78;2.90;;;;;;;27.42;35.02;98606.16;5282017;27;20013;-58
2024/05/02 10:40:06;;;;;;;3.28;2.60;;;;;;;27.88;35.36;98624.28;5285476;27;20469;-60
2024/05/02 10:42:33;;;;;;;3.42;2.30;;;;;;;28.08;35.42;98615.69;5282917;27;20005;-60
2024/05/02 10:45:04;;;;;;;5.70;2.72;;;;;;;28.19;35.31;98630.28;5283345;27;20101;-60
2024/05/02 10:47:30;;;;;;;6.43;3.15;;;;;;;28.24;35.25;98626.66;5291208;27;20006;-58
2024/05/02 10:49:55;;;;;;;3.35;2.92;;;;;;;27.93;33.73;98578.81;5297161;27;20021;-59
2024/05/02 10:52:20;;;;;;;5.45;2.70;;;;;;;28.14;33.34;98611.75;5297911;26;20005;-60
2024/05/02 10:54:48;;;;;;;3.70;2.53;;;;;;;28.04;33.62;98604.06;5301223;26;20236;-60
2024/05/02 10:57:13;;;;;;;6.85;3.08;;;;;;;28.00;33.42;98611.13;5290918;26;20020;-60
2024/05/02 10:59:41;;;;;;;4.30;2.75;;;;;;;28.04;34.53;98612.06;5278482;27;20007;-61
2024/05/02 11:02:06;;;;;;;5.80;3.08;;;;;;;28.20;34.44;98618.50;5278749;27;20367;-59
2024/05/02 11:04:31;;;;;;;6.45;2.88;;;;;;;28.42;34.54;98606.88;5299234;26;20006;-58
2024/05/02 11:06:57;;;;;;;2.42;2.22;;;;;;;28.78;34.15;98608.38;5299360;26;20010;-60
2024/05/02 11:09:22;;;;;;;4.50;2.40;;;;;;;29.12;34.02;98602.97;5299825;26;20362;-59
2024/05/02 11:11:51;;;;;;;3.20;2.65;;;;;;;29.46;33.21;98617.25;5286640;26;20002;-58
2024/05/02 11:14:16;;;;;;;8.85;2.47;;;;;;;29.84;32.64;98606.50;5285216;27;20666;-60
2024/05/02 11:16:42;;;;;;;6.45;2.58;;;;;;;30.01;31.34;98611.69;5282402;27;20010;-60
2024/05/02 11:19:10;;;;;;;4.38;2.80;;;;;;;30.45;31.41;98612.16;5286548;27;20010;-59
2024/05/02 11:21:35;;;;;;;3.55;2.85;;;;;;;30.11;30.70;98586.47;5308252;26;20002;-60
2024/05/02 11:24:04;;;;;;;4.47;2.75;;;;;;;30.11;31.58;98612.44;5305798;27;20466;-61
2024/05/02 11:26:32;;;;;;;5.18;2.40;;;;;;;30.29;30.50;98614.63;5303830;26;20043;-60